createdAt,value
2018-08-31T00:02:18.066Z,14.07
2018-08-31T00:05:04.482Z,13.81
2018-08-31T00:07:56.297Z,13.73
2018-08-31T00:10:45.269Z,13.67
2018-08-31T00:13:14.625Z,13.65
2018-08-31T00:15:44.033Z,13.63
2018-08-31T00:18:13.401Z,13.48
2018-08-31T00:20:42.785Z,13.54
2018-08-31T00:23:12.166Z,13.52
2018-08-31T00:26:10.814Z,13.58
2018-08-31T00:29:08.454Z,13.56
2018-08-31T00:31:56.930Z,13.63
2018-08-31T00:34:47.758Z,13.60
2018-08-31T00:38:40.743Z,13.63
2018-08-31T00:41:30.438Z,13.55
2018-08-31T00:44:35.478Z,13.56
2018-08-31T00:47:04.938Z,13.60
2018-08-31T00:49:34.374Z,13.51
2018-08-31T00:52:03.762Z,13.34
2018-08-31T00:54:33.145Z,13.34
2018-08-31T00:57:02.553Z,13.38
2018-08-31T00:59:31.922Z,13.56
2018-08-31T01:02:01.578Z,13.55
2018-08-31T01:04:30.974Z,13.55
2018-08-31T01:07:00.357Z,13.42
2018-08-31T01:09:29.730Z,13.39
2018-08-31T01:11:59.145Z,13.40
2018-08-31T01:14:28.527Z,13.47
2018-08-31T01:16:57.903Z,13.52
2018-08-31T01:19:27.328Z,13.54
2018-08-31T01:21:56.758Z,13.48
2018-08-31T01:24:26.145Z,13.29
2018-08-31T01:26:55.767Z,13.24
2018-08-31T01:29:25.142Z,13.32
2018-08-31T01:31:54.842Z,13.29
2018-08-31T01:34:24.246Z,13.24
2018-08-31T01:36:53.690Z,13.18
2018-08-31T01:39:23.073Z,13.05
2018-08-31T01:41:52.429Z,12.87
2018-08-31T01:44:21.887Z,12.74
2018-08-31T01:46:51.254Z,12.71
2018-08-31T01:49:20.645Z,12.50
2018-08-31T01:51:50.010Z,12.41
2018-08-31T01:54:19.402Z,12.45
2018-08-31T01:56:48.830Z,12.51
2018-08-31T01:59:18.204Z,12.56
2018-08-31T02:01:47.634Z,12.64
2018-08-31T02:04:17.031Z,12.63
2018-08-31T02:06:46.413Z,12.76
2018-08-31T02:09:19.791Z,12.79
2018-08-31T02:11:50.130Z,12.70
2018-08-31T02:14:19.611Z,12.78
2018-08-31T02:16:49.069Z,12.80
2018-08-31T02:19:18.438Z,12.86
2018-08-31T02:21:47.858Z,12.83
2018-08-31T02:24:17.226Z,12.84
2018-08-31T02:26:46.606Z,12.92
2018-08-31T02:29:16.006Z,12.98
2018-08-31T02:31:45.401Z,13.05
2018-08-31T02:34:14.837Z,13.10
2018-08-31T02:36:44.189Z,13.10
2018-08-31T02:39:13.710Z,13.02
2018-08-31T02:41:43.093Z,12.99
2018-08-31T02:44:12.496Z,12.96
2018-08-31T02:46:41.875Z,12.86
2018-08-31T02:49:11.278Z,12.82
2018-08-31T02:51:40.691Z,12.80
2018-08-31T02:54:10.086Z,12.72
2018-08-31T02:56:39.639Z,12.79
2018-08-31T02:59:09.074Z,12.74
2018-08-31T03:01:38.463Z,12.75
2018-08-31T03:04:08.019Z,12.63
2018-08-31T03:06:37.421Z,12.62
2018-08-31T03:09:07.678Z,12.63
2018-08-31T03:11:37.145Z,12.62
2018-08-31T03:14:06.510Z,12.63
2018-08-31T03:16:35.933Z,12.63
2018-08-31T03:19:05.341Z,12.59
2018-08-31T03:21:34.702Z,12.48
2018-08-31T03:24:04.234Z,12.40
2018-08-31T03:26:33.646Z,12.47
2018-08-31T03:29:03.069Z,12.47
2018-08-31T03:31:32.481Z,12.49
2018-08-31T03:34:01.849Z,12.55
2018-08-31T03:36:31.243Z,12.57
2018-08-31T03:39:00.647Z,12.51
2018-08-31T03:41:30.016Z,12.54
2018-08-31T03:43:59.444Z,12.13
2018-08-31T03:46:28.826Z,12.62
2018-08-31T03:49:12.225Z,11.12
2018-08-31T03:51:41.634Z,12.81
2018-08-31T03:54:11.008Z,12.75
2018-08-31T03:56:40.427Z,12.84
2018-08-31T03:59:09.786Z,12.86
2018-08-31T04:01:39.167Z,12.91
2018-08-31T04:04:08.526Z,12.94
2018-08-31T04:06:37.888Z,12.91
2018-08-31T04:09:08.986Z,12.89
2018-08-31T04:11:38.345Z,12.93
2018-08-31T04:14:07.717Z,12.93
2018-08-31T04:16:37.082Z,12.98
2018-08-31T04:19:13.018Z,12.98
2018-08-31T04:21:42.644Z,12.97
2018-08-31T04:24:12.697Z,13.05
2018-08-31T04:26:42.069Z,13.06
2018-08-31T04:29:11.874Z,13.13
2018-08-31T04:31:41.475Z,13.11
2018-08-31T04:34:11.973Z,13.17
2018-08-31T04:36:42.240Z,13.29
2018-08-31T04:39:13.130Z,13.28
2018-08-31T04:41:43.691Z,13.28
2018-08-31T04:44:13.216Z,13.23
2018-08-31T04:46:42.609Z,13.26
2018-08-31T04:49:11.977Z,13.15
2018-08-31T04:51:41.370Z,13.18
2018-08-31T04:54:10.723Z,13.19
2018-08-31T04:56:40.102Z,13.26
2018-08-31T04:59:09.462Z,13.34
2018-08-31T05:01:38.833Z,13.31
2018-08-31T05:04:08.207Z,13.40
2018-08-31T05:06:37.814Z,13.41
2018-08-31T05:09:10.315Z,13.47
2018-08-31T05:11:39.682Z,13.53
2018-08-31T05:14:09.092Z,13.50
2018-08-31T05:16:38.478Z,13.43
2018-08-31T05:19:07.865Z,13.49
2018-08-31T05:21:37.219Z,13.59
2018-08-31T05:24:06.646Z,13.60
2018-08-31T05:26:36.014Z,13.64
2018-08-31T05:29:05.417Z,13.67
2018-08-31T05:31:34.795Z,13.60
2018-08-31T05:34:04.232Z,13.58
2018-08-31T05:36:33.542Z,13.51
2018-08-31T05:39:02.938Z,13.50
2018-08-31T05:41:32.347Z,13.48
2018-08-31T05:44:01.721Z,13.54
2018-08-31T05:46:31.100Z,13.58
2018-08-31T05:49:00.458Z,13.58
2018-08-31T05:51:29.835Z,13.60
2018-08-31T05:53:59.214Z,13.69
2018-08-31T05:56:28.615Z,13.72
2018-08-31T05:58:58.010Z,13.77
2018-08-31T06:01:27.406Z,13.75
2018-08-31T06:03:56.769Z,13.89
2018-08-31T06:06:26.154Z,14.04
2018-08-31T06:08:55.510Z,14.11
2018-08-31T06:11:24.894Z,14.18
2018-08-31T06:13:54.278Z,14.29
2018-08-31T06:16:23.656Z,14.47
2018-08-31T06:18:53.065Z,14.66
2018-08-31T06:21:22.461Z,14.76
2018-08-31T06:23:51.834Z,14.83
2018-08-31T06:26:21.225Z,15.01
2018-08-31T06:28:50.585Z,15.04
2018-08-31T06:31:19.960Z,15.12
2018-08-31T06:33:49.373Z,15.21
2018-08-31T06:36:18.758Z,15.30
2018-08-31T06:38:48.138Z,15.28
2018-08-31T06:41:17.592Z,15.51
2018-08-31T06:43:46.967Z,15.49
2018-08-31T06:46:16.330Z,15.68
2018-08-31T06:48:45.710Z,15.91
2018-08-31T06:51:15.181Z,15.99
2018-08-31T06:53:44.714Z,16.08
2018-08-31T06:56:14.090Z,16.23
2018-08-31T06:58:43.442Z,16.21
2018-08-31T07:01:12.903Z,16.16
2018-08-31T07:03:42.358Z,16.36
2018-08-31T07:06:11.737Z,16.62
2018-08-31T07:08:41.111Z,16.91
2018-08-31T07:11:10.551Z,16.94
2018-08-31T07:13:39.928Z,16.98
2018-08-31T07:16:09.305Z,17.00
2018-08-31T07:18:38.670Z,17.10
2018-08-31T07:21:08.170Z,17.13
2018-08-31T07:23:37.550Z,17.18
2018-08-31T07:26:06.966Z,17.32
2018-08-31T07:28:36.346Z,17.50
2018-08-31T07:31:05.954Z,17.61
2018-08-31T07:33:35.312Z,17.64
2018-08-31T07:36:04.698Z,17.66
2018-08-31T07:38:34.100Z,17.66
2018-08-31T07:41:03.494Z,17.43
2018-08-31T07:43:32.837Z,17.46
2018-08-31T07:46:02.198Z,17.31
2018-08-31T07:48:31.570Z,17.19
2018-08-31T07:51:00.938Z,17.14
2018-08-31T07:53:30.338Z,17.19
2018-08-31T07:55:59.749Z,17.44
2018-08-31T07:58:29.522Z,17.66
2018-08-31T08:00:58.893Z,17.95
2018-08-31T08:03:28.254Z,18.08
2018-08-31T08:05:57.699Z,18.06
2018-08-31T08:08:27.062Z,18.13
2018-08-31T08:10:56.454Z,18.24
2018-08-31T08:13:25.834Z,18.33
2018-08-31T08:15:55.190Z,18.46
2018-08-31T08:18:24.578Z,18.63
2018-08-31T08:20:54.004Z,18.70
2018-08-31T08:23:23.389Z,18.54
2018-08-31T08:25:52.798Z,18.96
2018-08-31T08:28:22.244Z,19.23
2018-08-31T08:30:51.572Z,19.44
2018-08-31T08:33:20.988Z,19.70
2018-08-31T08:35:50.377Z,19.66
2018-08-31T08:38:19.742Z,19.90
2018-08-31T08:40:49.354Z,19.68
2018-08-31T08:43:18.736Z,19.82
2018-08-31T08:45:48.094Z,20.08
2018-08-31T08:48:17.499Z,19.93
2018-08-31T08:50:46.855Z,19.66
2018-08-31T08:53:16.210Z,19.50
2018-08-31T08:55:45.575Z,19.83
2018-08-31T08:58:14.952Z,19.81
2018-08-31T09:00:44.306Z,19.56
2018-08-31T09:03:13.690Z,19.57
2018-08-31T09:05:43.110Z,19.54
2018-08-31T09:08:12.425Z,19.38
2018-08-31T09:10:41.791Z,19.02
2018-08-31T09:13:11.149Z,18.69
2018-08-31T09:15:40.527Z,18.56
2018-08-31T09:18:09.896Z,18.68
2018-08-31T09:20:39.270Z,18.50
2018-08-31T09:23:08.645Z,18.47
2018-08-31T09:25:38.357Z,18.56
2018-08-31T09:28:07.714Z,18.54
2018-08-31T09:30:43.304Z,19.04
2018-08-31T09:33:12.709Z,19.35
2018-08-31T09:35:42.069Z,19.46
2018-08-31T09:38:11.520Z,19.75
2018-08-31T09:40:40.891Z,20.01
2018-08-31T09:43:10.774Z,20.00
2018-08-31T09:45:40.141Z,20.33
2018-08-31T09:48:09.503Z,20.51
2018-08-31T09:50:38.886Z,20.56
2018-08-31T09:53:08.260Z,20.36
2018-08-31T09:55:40.977Z,20.17
2018-08-31T09:58:10.367Z,20.47
2018-08-31T10:00:44.940Z,20.58
2018-08-31T10:03:19.493Z,20.57
2018-08-31T10:05:48.876Z,20.77
2018-08-31T10:08:18.285Z,20.84
2018-08-31T10:10:47.890Z,20.93
2018-08-31T10:13:17.223Z,21.10
2018-08-31T10:15:46.634Z,20.92
2018-08-31T10:18:16.018Z,21.17
2018-08-31T10:20:45.391Z,21.26
2018-08-31T10:23:14.786Z,20.87
2018-08-31T10:25:44.162Z,20.88
2018-08-31T10:28:13.523Z,20.63
2018-08-31T10:30:42.914Z,20.19
2018-08-31T10:33:19.066Z,20.17
2018-08-31T10:35:48.454Z,20.03
2018-08-31T10:38:17.826Z,19.84
2018-08-31T10:40:47.245Z,19.78
2018-08-31T10:43:16.630Z,19.97
2018-08-31T10:45:46.074Z,20.15
2018-08-31T10:48:15.434Z,19.79
2018-08-31T10:50:44.910Z,19.89
2018-08-31T10:53:14.305Z,19.90
2018-08-31T10:55:43.670Z,19.87
2018-08-31T10:58:13.118Z,20.32
2018-08-31T11:00:42.521Z,20.40
2018-08-31T11:03:11.934Z,20.34
2018-08-31T11:05:41.307Z,20.67
2018-08-31T11:08:10.744Z,21.03
2018-08-31T11:10:40.158Z,20.91
2018-08-31T11:13:09.607Z,21.10
2018-08-31T11:15:38.922Z,21.48
2018-08-31T11:18:08.348Z,21.89
2018-08-31T11:20:37.802Z,21.77
2018-08-31T11:23:07.198Z,21.71
2018-08-31T11:25:36.719Z,22.08
2018-08-31T11:28:06.090Z,22.27
2018-08-31T11:30:36.402Z,22.71
2018-08-31T11:33:05.926Z,23.05
2018-08-31T11:35:35.307Z,22.87
2018-08-31T11:38:04.735Z,23.11
2018-08-31T11:40:34.346Z,23.28
2018-08-31T11:43:03.819Z,23.20
2018-08-31T11:45:33.182Z,22.85
2018-08-31T11:48:02.997Z,22.84
2018-08-31T11:50:32.390Z,22.83
2018-08-31T11:53:01.818Z,22.66
2018-08-31T11:55:31.202Z,22.81
2018-08-31T11:58:00.602Z,22.41
2018-08-31T12:00:30.150Z,22.09
2018-08-31T12:02:59.610Z,22.26
2018-08-31T12:05:28.966Z,22.14
2018-08-31T12:07:58.476Z,22.10
2018-08-31T12:10:27.874Z,22.02
2018-08-31T12:12:57.279Z,22.18
2018-08-31T12:15:26.942Z,21.97
2018-08-31T12:17:56.442Z,21.84
2018-08-31T12:20:25.832Z,21.88
2018-08-31T12:22:55.257Z,22.12
2018-08-31T12:25:24.626Z,22.25
2018-08-31T12:27:53.991Z,22.92
2018-08-31T12:30:23.394Z,23.46
2018-08-31T12:32:52.778Z,24.03
2018-08-31T12:35:22.164Z,24.53
2018-08-31T12:37:51.631Z,24.14
2018-08-31T12:40:21.013Z,23.98
2018-08-31T12:42:50.429Z,24.27
2018-08-31T12:45:19.806Z,24.45
2018-08-31T12:47:49.199Z,24.12
2018-08-31T12:50:18.590Z,22.75
2018-08-31T12:52:47.984Z,22.65
2018-08-31T12:55:17.435Z,22.55
2018-08-31T12:57:46.851Z,22.52
2018-08-31T13:00:16.334Z,22.47
2018-08-31T13:02:45.665Z,22.42
2018-08-31T13:05:15.046Z,22.04
2018-08-31T13:07:44.426Z,21.89
2018-08-31T13:10:13.820Z,22.23
2018-08-31T13:12:43.230Z,22.59
2018-08-31T13:15:12.626Z,23.01
2018-08-31T13:17:42.014Z,22.52
2018-08-31T13:20:11.447Z,22.56
2018-08-31T13:22:41.054Z,22.25
2018-08-31T13:25:10.546Z,22.06
2018-08-31T13:27:39.968Z,22.00
2018-08-31T13:30:09.418Z,21.93
2018-08-31T13:32:38.916Z,22.39
2018-08-31T13:35:08.420Z,22.58
2018-08-31T13:37:37.811Z,22.78
2018-08-31T13:40:07.286Z,22.99
2018-08-31T13:42:36.645Z,23.24
2018-08-31T13:45:06.091Z,22.95
2018-08-31T13:47:35.455Z,22.74
2018-08-31T13:50:04.954Z,22.81
2018-08-31T13:52:34.379Z,22.57
2018-08-31T13:55:03.799Z,22.61
2018-08-31T13:57:33.187Z,22.72
2018-08-31T14:00:02.565Z,23.02
2018-08-31T14:02:31.958Z,22.92
2018-08-31T14:05:01.331Z,22.80
2018-08-31T14:07:30.718Z,23.02
2018-08-31T14:10:00.098Z,23.07
2018-08-31T14:12:29.495Z,22.90
2018-08-31T14:14:58.895Z,22.56
2018-08-31T14:17:28.286Z,22.80
2018-08-31T14:19:57.656Z,23.02
2018-08-31T14:22:27.054Z,22.99
2018-08-31T14:24:56.443Z,23.18
2018-08-31T14:27:25.823Z,22.77
2018-08-31T14:29:55.335Z,23.36
2018-08-31T14:32:24.604Z,23.58
2018-08-31T14:34:54.162Z,23.52
2018-08-31T14:37:23.554Z,23.18
2018-08-31T14:39:52.930Z,23.03
2018-08-31T14:42:22.326Z,22.60
2018-08-31T14:44:51.702Z,22.45
2018-08-31T14:47:21.099Z,22.08
2018-08-31T14:49:50.570Z,22.26
2018-08-31T14:52:19.894Z,22.09
2018-08-31T14:54:49.258Z,21.90
2018-08-31T14:57:18.690Z,21.86
2018-08-31T14:59:48.073Z,21.85
2018-08-31T15:02:17.476Z,21.81
2018-08-31T15:04:46.851Z,21.56
2018-08-31T15:07:16.408Z,21.28
2018-08-31T15:09:45.815Z,21.49
2018-08-31T15:12:15.286Z,21.50
2018-08-31T15:14:44.699Z,21.49
2018-08-31T15:17:14.073Z,21.22
2018-08-31T15:19:43.446Z,20.99
2018-08-31T15:22:12.910Z,20.91
2018-08-31T15:24:42.279Z,20.55
2018-08-31T15:27:11.826Z,20.59
2018-08-31T15:29:41.203Z,20.64
2018-08-31T15:32:10.583Z,20.71
2018-08-31T15:34:39.967Z,20.67
2018-08-31T15:37:09.343Z,20.65
2018-08-31T15:39:38.730Z,20.78
2018-08-31T15:42:08.229Z,20.91
2018-08-31T15:44:37.605Z,21.04
2018-08-31T15:47:07.184Z,21.30
2018-08-31T15:49:36.646Z,21.23
2018-08-31T15:52:06.134Z,21.49
2018-08-31T15:54:35.587Z,21.74
2018-08-31T15:57:05.002Z,21.77
2018-08-31T15:59:34.390Z,21.58
2018-08-31T16:02:03.775Z,21.94
2018-08-31T16:04:33.158Z,21.85
2018-08-31T16:07:02.546Z,21.63
2018-08-31T16:09:31.914Z,21.30
2018-08-31T16:12:01.298Z,21.31
2018-08-31T16:14:30.974Z,21.01
2018-08-31T16:17:00.885Z,20.85
2018-08-31T16:19:30.255Z,21.09
2018-08-31T16:21:59.683Z,20.93
2018-08-31T16:24:29.159Z,20.98
2018-08-31T16:26:58.568Z,20.74
2018-08-31T16:29:27.951Z,20.56
2018-08-31T16:31:57.332Z,20.55
2018-08-31T16:34:26.735Z,20.40
2018-08-31T16:36:56.375Z,20.34
2018-08-31T16:39:25.742Z,20.40
2018-08-31T16:41:55.489Z,20.41
2018-08-31T16:44:24.874Z,20.33
2018-08-31T16:46:54.257Z,20.34
2018-08-31T16:49:23.646Z,20.43
2018-08-31T16:51:53.062Z,20.39
2018-08-31T16:54:22.558Z,20.38
2018-08-31T16:56:51.950Z,20.46
2018-08-31T16:59:21.366Z,20.05
2018-08-31T17:01:50.878Z,20.07
2018-08-31T17:04:20.293Z,20.08
2018-08-31T17:06:49.705Z,20.10
2018-08-31T17:09:19.095Z,20.01
2018-08-31T17:11:48.470Z,19.95
2018-08-31T17:14:17.857Z,19.94
2018-08-31T17:16:47.354Z,19.85
2018-08-31T17:19:16.718Z,19.69
2018-08-31T17:21:46.118Z,19.51
2018-08-31T17:24:15.550Z,19.46
2018-08-31T17:26:50.241Z,19.50
2018-08-31T17:29:24.810Z,19.57
2018-08-31T17:31:59.451Z,19.51
2018-08-31T17:34:34.058Z,19.63
2018-08-31T17:37:08.842Z,19.51
2018-08-31T17:39:38.226Z,19.59
2018-08-31T17:42:07.925Z,19.38
2018-08-31T17:44:37.317Z,19.30
2018-08-31T17:47:06.706Z,18.97
2018-08-31T17:49:36.270Z,19.09
2018-08-31T17:52:05.678Z,19.03
2018-08-31T17:54:35.039Z,19.01
2018-08-31T17:57:04.453Z,18.92
2018-08-31T17:59:33.833Z,18.92
2018-08-31T18:02:03.543Z,18.80
2018-08-31T18:04:32.959Z,18.79
2018-08-31T18:07:02.360Z,18.71
2018-08-31T18:09:31.995Z,18.48
2018-08-31T18:12:01.179Z,18.40
2018-08-31T18:14:30.559Z,18.37
2018-08-31T18:16:59.982Z,18.28
2018-08-31T18:19:29.372Z,18.24
2018-08-31T18:21:58.786Z,17.97
2018-08-31T18:24:28.404Z,17.95
2018-08-31T18:26:57.894Z,17.91
2018-08-31T18:29:27.709Z,17.88
2018-08-31T18:31:57.222Z,17.81
2018-08-31T18:34:26.762Z,17.77
2018-08-31T18:36:56.662Z,17.74
2018-08-31T18:39:26.534Z,17.54
2018-08-31T18:41:57.056Z,17.49
2018-08-31T18:44:29.233Z,17.47
2018-08-31T18:47:02.054Z,17.50
2018-08-31T18:49:34.820Z,17.42
2018-08-31T18:52:06.972Z,17.29
2018-08-31T18:54:38.819Z,17.25
2018-08-31T18:57:11.768Z,17.17
2018-08-31T18:59:44.880Z,16.99
2018-08-31T19:02:17.985Z,16.82
2018-08-31T19:04:50.970Z,16.83
2018-08-31T19:07:24.646Z,16.65
2018-08-31T19:09:57.501Z,16.73
2018-08-31T19:12:30.624Z,16.61
2018-08-31T19:15:03.919Z,16.57
2018-08-31T19:17:36.671Z,16.54
2018-08-31T19:20:09.641Z,16.57
2018-08-31T19:22:42.732Z,16.45
2018-08-31T19:25:15.701Z,16.44
2018-08-31T19:27:48.557Z,16.21
2018-08-31T19:30:21.622Z,16.13
2018-08-31T19:32:55.424Z,15.86
2018-08-31T19:35:28.698Z,15.92
2018-08-31T19:38:01.632Z,15.80
2018-08-31T19:40:34.720Z,15.80
2018-08-31T19:43:07.862Z,15.72
2018-08-31T19:45:40.856Z,15.60
2018-08-31T19:48:13.793Z,15.56
2018-08-31T19:50:47.602Z,15.59
2018-08-31T19:53:20.481Z,15.46
2018-08-31T19:55:53.316Z,15.54
2018-08-31T19:58:26.065Z,15.45
2018-08-31T20:00:58.873Z,15.38
2018-08-31T20:03:31.655Z,15.37
2018-08-31T20:06:04.460Z,15.33
2018-08-31T20:08:38.149Z,15.31
2018-08-31T20:11:12.209Z,15.40
2018-08-31T20:13:45.069Z,15.37
2018-08-31T20:16:17.901Z,15.35
2018-08-31T20:18:50.713Z,15.32
2018-08-31T20:21:23.746Z,15.39
2018-08-31T20:23:56.926Z,15.29
2018-08-31T20:26:30.530Z,15.25
2018-08-31T20:29:03.498Z,15.26
2018-08-31T20:31:36.337Z,15.28
2018-08-31T20:34:08.989Z,15.32
2018-08-31T20:36:40.493Z,15.30
2018-08-31T20:39:12.998Z,15.28
2018-08-31T20:41:43.879Z,15.23
2018-08-31T20:44:14.454Z,15.23
2018-08-31T20:46:44.032Z,15.16
2018-08-31T20:49:13.447Z,15.01
2018-08-31T20:51:43.091Z,14.88
2018-08-31T20:54:12.571Z,14.89
2018-08-31T20:56:42.168Z,14.83
2018-08-31T20:59:11.583Z,14.82
2018-08-31T21:01:41.006Z,14.87
2018-08-31T21:04:10.431Z,14.90
2018-08-31T21:06:39.865Z,14.92
2018-08-31T21:09:10.914Z,14.90
2018-08-31T21:11:40.419Z,14.76
2018-08-31T21:14:09.970Z,14.43
2018-08-31T21:16:39.431Z,14.28
2018-08-31T21:19:08.818Z,14.32
2018-08-31T21:21:38.290Z,14.32
2018-08-31T21:24:07.690Z,14.31
2018-08-31T21:26:37.090Z,14.19
2018-08-31T21:29:06.457Z,14.20
2018-08-31T21:31:35.860Z,14.15
2018-08-31T21:34:05.230Z,14.09
2018-08-31T21:36:34.634Z,13.80
2018-08-31T21:39:04.874Z,13.71
2018-08-31T21:41:34.438Z,13.76
2018-08-31T21:44:04.134Z,13.75
2018-08-31T21:46:33.525Z,13.75
2018-08-31T21:49:02.994Z,13.81
2018-08-31T21:51:32.357Z,13.71
2018-08-31T21:54:01.757Z,13.62
2018-08-31T21:56:31.223Z,13.61
2018-08-31T21:59:02.162Z,13.45
2018-08-31T22:01:36.725Z,13.43
2018-08-31T22:04:07.375Z,13.31
2018-08-31T22:06:37.917Z,13.24
2018-08-31T22:09:09.422Z,13.18
2018-08-31T22:11:38.882Z,13.10
2018-08-31T22:14:08.267Z,13.10
2018-08-31T22:16:37.651Z,13.08
2018-08-31T22:19:07.280Z,13.06
2018-08-31T22:21:36.637Z,12.98
2018-08-31T22:24:06.106Z,12.84
2018-08-31T22:26:35.505Z,12.81
2018-08-31T22:29:04.899Z,12.73
2018-08-31T22:31:34.294Z,12.70
2018-08-31T22:34:03.783Z,12.66
2018-08-31T22:36:33.171Z,12.66
2018-08-31T22:39:02.598Z,12.49
2018-08-31T22:41:32.111Z,12.17
2018-08-31T22:44:01.523Z,12.17
2018-08-31T22:46:30.903Z,12.16
2018-08-31T22:49:00.305Z,12.17
2018-08-31T22:51:29.669Z,12.20
2018-08-31T22:53:59.061Z,12.11
2018-08-31T22:56:28.437Z,11.21
2018-08-31T22:58:57.871Z,11.93
2018-08-31T23:01:27.262Z,11.73
2018-08-31T23:03:56.651Z,11.75
2018-08-31T23:06:26.031Z,11.62
2018-08-31T23:08:55.454Z,11.56
2018-08-31T23:11:24.831Z,11.50
2018-08-31T23:13:54.240Z,11.31
2018-08-31T23:16:23.624Z,11.29
2018-08-31T23:18:53.040Z,11.30
2018-08-31T23:21:22.425Z,11.35
2018-08-31T23:23:51.848Z,11.27
2018-08-31T23:26:21.211Z,11.25
2018-08-31T23:28:50.602Z,11.25
2018-08-31T23:31:19.978Z,11.21
2018-08-31T23:33:49.382Z,11.12
2018-08-31T23:36:18.764Z,11.08
2018-08-31T23:38:48.146Z,11.03
2018-08-31T23:41:19.137Z,11.00
2018-08-31T23:43:48.518Z,10.99
2018-08-31T23:46:17.988Z,11.05
2018-08-31T23:48:47.393Z,10.95
2018-08-31T23:51:16.827Z,10.88
2018-08-31T23:53:46.192Z,10.79
2018-08-31T23:56:15.634Z,10.64
2018-08-31T23:58:44.994Z,10.53
